Time;durP1;ratioP1;P1;durP2;ratioP2;P2;SDS_P1;SDS_P2;PMS_P1;PMS_P2;Temp;Humidity;BMP_temperature;BMP_pressure;BME280_temperature;BME280_humidity;BME280_pressure;Samples;Min_cycle;Max_cycle;Signal;HPM_P1;HPM_P2
2023/08/07 00:00:42;;;;;;;6.38;2.50;;;12.60;99.90;;;;;;4993679;28;20121;-76
2023/08/07 00:03:08;;;;;;;7.15;2.75;;;12.60;99.90;;;;;;4993408;28;20105;-76
2023/08/07 00:05:33;;;;;;;6.57;2.55;;;12.70;99.90;;;;;;4993602;28;20144;-76
2023/08/07 00:07:59;;;;;;;5.47;2.30;;;12.70;99.90;;;;;;4991444;28;20034;-76
2023/08/07 00:10:26;;;;;;;4.68;2.92;;;12.80;99.90;;;;;;4993378;28;20034;-77
2023/08/07 00:12:51;;;;;;;12.43;3.70;;;12.80;99.90;;;;;;4993447;28;20041;-74
2023/08/07 00:15:17;;;;;;;8.25;3.05;;;12.80;99.90;;;;;;4991816;28;20038;-76
2023/08/07 00:17:43;;;;;;;7.78;3.22;;;12.90;99.90;;;;;;4993426;28;20093;-77
2023/08/07 00:20:09;;;;;;;8.10;3.60;;;12.90;99.90;;;;;;4993491;28;20028;-75
2023/08/07 00:22:34;;;;;;;7.88;3.55;;;12.90;99.90;;;;;;4981435;28;20031;-75
2023/08/07 00:25:00;;;;;;;11.02;3.92;;;12.90;99.90;;;;;;4973806;28;20027;-75
2023/08/07 00:27:26;;;;;;;5.85;3.38;;;13.00;99.90;;;;;;4973153;28;20026;-75
2023/08/07 00:29:51;;;;;;;14.10;2.80;;;13.00;99.90;;;;;;4973788;28;20027;-74
2023/08/07 00:32:17;;;;;;;7.43;3.03;;;13.00;99.90;;;;;;4972818;28;20034;-76
2023/08/07 00:34:43;;;;;;;4.88;2.50;;;12.90;99.90;;;;;;4972650;28;20031;-75
2023/08/07 00:37:09;;;;;;;6.15;2.60;;;12.90;99.90;;;;;;4971072;28;20051;-74
2023/08/07 00:39:34;;;;;;;7.05;2.50;;;12.90;99.90;;;;;;4972314;28;20023;-74
2023/08/07 00:42:00;;;;;;;6.65;2.42;;;12.90;99.90;;;;;;4971212;28;20484;-75
2023/08/07 00:44:26;;;;;;;6.35;2.10;;;12.80;99.90;;;;;;4972240;28;20067;-74
2023/08/07 00:46:52;;;;;;;6.88;2.08;;;12.80;99.90;;;;;;4972538;28;20089;-75
2023/08/07 00:49:19;;;;;;;5.53;1.90;;;12.70;99.90;;;;;;4972206;28;20118;-76
2023/08/07 00:51:46;;;;;;;7.32;2.20;;;12.70;99.90;;;;;;4971073;28;20503;-75
2023/08/07 00:54:18;;;;;;;7.38;1.90;;;12.60;99.90;;;;;;4972193;28;20038;-75
2023/08/07 00:56:44;;;;;;;4.63;2.50;;;12.70;99.90;;;;;;4971801;28;20085;-75
2023/08/07 00:59:10;;;;;;;7.35;3.08;;;12.60;99.90;;;;;;4970744;28;20484;-74
2023/08/07 01:01:36;;;;;;;5.22;2.30;;;12.60;99.90;;;;;;4971532;28;20034;-75
2023/08/07 01:04:02;;;;;;;6.25;3.00;;;12.50;99.90;;;;;;4972141;28;20163;-74
2023/08/07 01:06:28;;;;;;;7.13;2.35;;;12.50;99.90;;;;;;4971864;28;20106;-75
2023/08/07 01:08:54;;;;;;;7.68;2.63;;;12.40;99.90;;;;;;4972191;28;20037;-74
2023/08/07 01:11:39;;;;;;;5.95;2.30;;;12.40;99.90;;;;;;4972524;28;20034;-77
2023/08/07 01:14:07;;;;;;;6.78;2.42;;;12.30;99.90;;;;;;4972448;28;20130;-75
2023/08/07 01:16:42;;;;;;;4.88;2.38;;;12.40;99.90;;;;;;4971835;28;20093;-75
2023/08/07 01:19:33;;;;;;;7.25;2.28;;;12.30;99.90;;;;;;4972448;28;20027;-76
2023/08/07 01:22:12;;;;;;;3.35;1.77;;;12.30;99.90;;;;;;4971607;28;20046;-75
2023/08/07 01:24:39;;;;;;;3.92;2.00;;;12.30;99.90;;;;;;4970176;28;20023;-75
2023/08/07 01:27:17;;;;;;;6.25;2.17;;;12.30;99.90;;;;;;4971608;28;20415;-75
2023/08/07 01:29:57;;;;;;;5.18;2.28;;;12.30;99.90;;;;;;4971280;28;20031;-74
2023/08/07 01:33:05;;;;;;;7.97;2.28;;;12.20;99.90;;;;;;4971521;28;20033;-77
2023/08/07 01:35:38;;;;;;;6.50;1.85;;;12.20;99.90;;;;;;4971865;28;20039;-76
2023/08/07 01:38:05;;;;;;;4.85;2.40;;;12.30;99.90;;;;;;4972704;28;20105;-76
2023/08/07 01:40:32;;;;;;;6.13;2.22;;;12.20;99.90;;;;;;4972302;28;20105;-76
2023/08/07 01:42:58;;;;;;;3.83;2.10;;;12.20;99.90;;;;;;4972560;28;20374;-75
2023/08/07 01:45:25;;;;;;;7.28;2.20;;;12.20;99.90;;;;;;4971922;28;20031;-76
2023/08/07 01:47:52;;;;;;;8.15;2.60;;;12.10;99.90;;;;;;4972259;28;20113;-76
2023/08/07 01:50:19;;;;;;;5.38;2.25;;;12.00;99.90;;;;;;4984579;28;20035;-76
2023/08/07 01:52:46;;;;;;;6.45;2.38;;;12.00;99.90;;;;;;4990964;28;20034;-76
2023/08/07 01:55:13;;;;;;;4.75;2.00;;;11.90;99.90;;;;;;4991346;28;20054;-76
2023/08/07 01:57:38;;;;;;;4.32;2.72;;;11.90;99.90;;;;;;4990632;28;20025;-75
2023/08/07 02:00:05;;;;;;;4.15;1.90;;;11.80;99.90;;;;;;4991381;28;20019;-75
2023/08/07 02:02:31;;;;;;;5.43;2.20;;;11.80;99.90;;;;;;4990751;28;20484;-75
2023/08/07 02:04:57;;;;;;;6.18;2.38;;;11.70;99.90;;;;;;4990869;28;20069;-75
2023/08/07 02:07:22;;;;;;;7.20;2.80;;;11.70;99.90;;;;;;4991221;28;20468;-76
2023/08/07 02:09:48;;;;;;;6.60;2.28;;;11.60;99.90;;;;;;4991040;28;20077;-75
2023/08/07 02:12:14;;;;;;;5.20;2.13;;;11.50;99.90;;;;;;4991310;28;20026;-75
2023/08/07 02:14:39;;;;;;;6.07;2.22;;;11.50;99.90;;;;;;4989576;28;20039;-75
2023/08/07 02:17:05;;;;;;;6.18;2.63;;;11.50;99.90;;;;;;4991524;28;20153;-75
2023/08/07 02:19:31;;;;;;;7.22;2.10;;;11.50;99.90;;;;;;4990974;28;20360;-76
2023/08/07 02:21:57;;;;;;;5.38;3.10;;;11.50;99.90;;;;;;4991391;28;20113;-75
2023/08/07 02:24:23;;;;;;;7.82;2.60;;;11.50;99.90;;;;;;4991051;28;20452;-76
2023/08/07 02:26:49;;;;;;;7.15;2.42;;;11.40;99.90;;;;;;4990699;28;20057;-75
2023/08/07 02:29:14;;;;;;;9.85;3.00;;;11.40;99.90;;;;;;4990893;28;20031;-75
2023/08/07 02:31:40;;;;;;;4.30;2.20;;;11.30;99.90;;;;;;4991886;28;20376;-75
2023/08/07 02:34:06;;;;;;;4.88;2.28;;;11.30;99.90;;;;;;4994935;28;20042;-75
2023/08/07 02:36:32;;;;;;;4.70;2.63;;;11.20;99.90;;;;;;4993705;28;20038;-75
2023/08/07 02:38:57;;;;;;;2.97;2.50;;;11.20;99.90;;;;;;4993907;28;20068;-75
2023/08/07 02:41:23;;;;;;;7.82;2.90;;;11.30;99.90;;;;;;4994161;28;20460;-75
2023/08/07 02:43:49;;;;;;;6.63;2.63;;;11.20;99.90;;;;;;4993990;28;20041;-75
2023/08/07 02:46:14;;;;;;;7.03;2.58;;;11.20;99.90;;;;;;4994279;28;20026;-75
2023/08/07 02:48:40;;;;;;;7.30;3.10;;;11.20;99.90;;;;;;4992160;28;20022;-75
2023/08/07 02:51:06;;;;;;;5.47;2.63;;;11.10;99.90;;;;;;4994373;28;20024;-75
2023/08/07 02:53:32;;;;;;;7.07;2.75;;;11.10;99.90;;;;;;4993460;28;20384;-76
2023/08/07 02:55:57;;;;;;;5.38;3.15;;;11.10;99.90;;;;;;4994381;28;20030;-75
2023/08/07 02:58:23;;;;;;;9.55;2.95;;;11.00;99.90;;;;;;4994290;28;20523;-75
2023/08/07 03:00:49;;;;;;;8.70;2.60;;;10.90;99.90;;;;;;4992159;28;20034;-75
2023/08/07 03:03:14;;;;;;;6.70;2.75;;;10.90;99.90;;;;;;4994105;28;20070;-75
2023/08/07 03:05:51;;;;;;;6.03;2.45;;;10.90;99.90;;;;;;4992954;28;20486;-75
2023/08/07 03:08:17;;;;;;;3.30;2.40;;;10.80;99.90;;;;;;4994077;28;20027;-75
2023/08/07 03:10:50;;;;;;;7.38;2.85;;;10.70;99.90;;;;;;4993163;28;20470;-75
2023/08/07 03:13:15;;;;;;;;;;;10.70;99.90;;;;;;4994250;28;20121;-75
2023/08/07 03:15:41;;;;;;;4.93;2.67;;;10.60;99.90;;;;;;4992829;28;19953;-75
2023/08/07 03:18:06;;;;;;;6.28;2.55;;;10.60;99.90;;;;;;4993482;28;20023;-75
2023/08/07 03:20:32;;;;;;;5.40;2.70;;;10.60;99.90;;;;;;4993353;28;20109;-75
2023/08/07 03:22:58;;;;;;;6.25;2.50;;;10.60;99.90;;;;;;4993596;28;20061;-75
2023/08/07 03:25:23;;;;;;;6.78;2.60;;;10.60;99.90;;;;;;4993237;28;20097;-75
2023/08/07 03:27:49;;;;;;;6.00;2.70;;;10.60;99.90;;;;;;4992999;28;20026;-75
2023/08/07 03:30:15;;;;;;;7.68;3.00;;;10.50;99.90;;;;;;4993378;28;20035;-75
2023/08/07 03:32:41;;;;;;;5.20;3.50;;;10.50;99.90;;;;;;4993423;28;20065;-76
2023/08/07 03:35:07;;;;;;;7.20;3.40;;;10.50;99.90;;;;;;4993426;28;20061;-75
2023/08/07 03:37:33;;;;;;;6.47;2.72;;;10.60;99.90;;;;;;4993126;28;20443;-76
2023/08/07 03:39:59;;;;;;;6.18;2.58;;;10.60;99.90;;;;;;4992068;28;20093;-75
2023/08/07 03:42:24;;;;;;;3.95;2.67;;;10.60;99.90;;;;;;4993053;28;20498;-75
2023/08/07 03:44:50;;;;;;;6.20;2.40;;;10.60;99.90;;;;;;4992565;28;20033;-75
2023/08/07 03:47:16;;;;;;;7.88;2.60;;;10.60;99.90;;;;;;4993319;28;20054;-76
2023/08/07 03:49:41;;;;;;;8.00;3.00;;;10.60;99.90;;;;;;4992727;28;20041;-75
2023/08/07 03:52:07;;;;;;;3.72;2.58;;;10.70;99.90;;;;;;4992882;28;20034;-75
2023/08/07 03:54:33;;;;;;;6.70;2.75;;;10.80;99.90;;;;;;4992522;28;20030;-76
2023/08/07 03:56:59;;;;;;;7.15;2.42;;;10.80;99.90;;;;;;4993439;28;20141;-75
2023/08/07 03:59:24;;;;;;;5.95;3.05;;;10.90;99.90;;;;;;4991993;28;20049;-75
2023/08/07 04:01:50;;;;;;;4.93;2.60;;;10.90;99.90;;;;;;4992423;28;20037;-74
2023/08/07 04:04:16;;;;;;;12.15;2.63;;;10.90;99.90;;;;;;4992881;28;20173;-75
2023/08/07 04:06:42;;;;;;;5.10;2.47;;;10.90;99.90;;;;;;4992157;28;20082;-74
2023/08/07 04:09:10;;;;;;;4.90;2.65;;;11.00;99.90;;;;;;4992833;28;20032;-74
2023/08/07 04:11:36;;;;;;;9.07;2.55;;;11.00;99.90;;;;;;4990534;28;20361;-75
2023/08/07 04:14:02;;;;;;;4.15;2.20;;;11.10;99.90;;;;;;4992613;28;20125;-74
2023/08/07 04:16:27;;;;;;;7.15;2.40;;;11.10;99.90;;;;;;4992726;28;20068;-74
2023/08/07 04:18:53;;;;;;;5.95;2.20;;;11.10;99.90;;;;;;4992054;28;20026;-76
2023/08/07 04:21:19;;;;;;;6.13;2.28;;;11.20;99.90;;;;;;4992658;28;20030;-75
2023/08/07 04:23:45;;;;;;;3.55;2.13;;;11.30;99.90;;;;;;4991670;28;20101;-75
2023/08/07 04:26:10;;;;;;;6.18;2.35;;;11.30;99.90;;;;;;4992148;28;20384;-74
2023/08/07 04:28:36;;;;;;;2.90;2.00;;;11.30;99.90;;;;;;4991765;28;20022;-74
2023/08/07 04:31:02;;;;;;;6.47;2.20;;;11.30;99.90;;;;;;4992514;28;20022;-75
2023/08/07 04:33:28;;;;;;;6.65;2.65;;;11.30;99.90;;;;;;4992078;28;20117;-75
2023/08/07 04:35:54;;;;;;;7.15;2.10;;;11.40;99.90;;;;;;4991451;28;20902;-76
2023/08/07 04:38:20;;;;;;;3.35;1.95;;;11.40;99.90;;;;;;4992124;28;20125;-73
2023/08/07 04:40:46;;;;;;;5.25;2.25;;;11.50;99.90;;;;;;4991511;28;20026;-77
2023/08/07 04:43:13;;;;;;;5.43;2.00;;;11.50;99.90;;;;;;4992116;28;20078;-76
2023/08/07 04:45:39;;;;;;;6.05;1.88;;;11.50;99.90;;;;;;4991863;28;20478;-76
2023/08/07 04:48:06;;;;;;;4.53;1.75;;;11.60;99.90;;;;;;4990577;28;20089;-75
2023/08/07 04:50:32;;;;;;;4.15;1.73;;;11.70;99.90;;;;;;4991687;28;20113;-76
2023/08/07 04:52:58;;;;;;;5.60;1.70;;;11.70;99.90;;;;;;4991756;28;20105;-73
2023/08/07 04:55:23;;;;;;;4.80;1.85;;;11.70;99.90;;;;;;4991410;28;20037;-74
2023/08/07 04:57:50;;;;;;;6.30;2.22;;;11.70;99.90;;;;;;4991795;28;20022;-74
2023/08/07 05:00:17;;;;;;;3.25;1.65;;;11.80;99.90;;;;;;4991623;28;20490;-75
2023/08/07 05:02:43;;;;;;;5.38;1.65;;;11.80;99.90;;;;;;4991118;28;20073;-76
2023/08/07 05:05:09;;;;;;;2.00;1.70;;;11.90;99.90;;;;;;4991621;28;20061;-74
2023/08/07 05:07:35;;;;;;;4.47;1.80;;;12.00;99.90;;;;;;4990973;28;20029;-77
2023/08/07 05:10:04;;;;;;;6.35;1.60;;;12.00;99.90;;;;;;4991589;28;20034;-73
2023/08/07 05:12:29;;;;;;;3.15;1.77;;;12.10;99.90;;;;;;4991303;28;20026;-74
2023/08/07 05:14:55;;;;;;;7.00;1.88;;;12.10;99.90;;;;;;4990932;28;20074;-74
2023/08/07 05:17:22;;;;;;;2.67;1.42;;;12.10;99.90;;;;;;4991340;28;20035;-73
2023/08/07 05:19:48;;;;;;;6.47;1.70;;;12.10;99.90;;;;;;4991377;28;20054;-74
2023/08/07 05:22:13;;;;;;;4.57;1.50;;;12.20;99.90;;;;;;4991832;28;20510;-75
2023/08/07 05:24:39;;;;;;;4.05;1.63;;;12.20;99.90;;;;;;4990860;28;20023;-76
2023/08/07 05:27:08;;;;;;;6.07;1.90;;;12.20;99.90;;;;;;4991405;28;20114;-75
2023/08/07 05:29:34;;;;;;;5.90;1.77;;;12.20;99.90;;;;;;4991129;28;20025;-75
2023/08/07 05:32:00;;;;;;;5.97;1.75;;;12.30;99.90;;;;;;4991053;28;20030;-75
2023/08/07 05:34:25;;;;;;;5.03;1.67;;;12.30;99.90;;;;;;4991507;28;20027;-75
2023/08/07 05:36:51;;;;;;;3.88;2.42;;;12.30;99.90;;;;;;4990215;28;20175;-75
2023/08/07 05:39:17;;;;;;;4.50;1.63;;;12.30;99.90;;;;;;4991315;28;20054;-75
2023/08/07 05:41:42;;;;;;;4.43;1.42;;;12.40;99.90;;;;;;4990396;28;20464;-76
2023/08/07 05:44:08;;;;;;;3.92;1.60;;;12.50;99.90;;;;;;4991353;28;20031;-75
2023/08/07 05:46:34;;;;;;;3.53;1.80;;;12.50;99.90;;;;;;4990974;28;20080;-75
2023/08/07 05:48:59;;;;;;;3.97;1.90;;;12.50;99.90;;;;;;4990390;28;20034;-76
2023/08/07 05:51:25;;;;;;;3.80;1.80;;;12.60;99.90;;;;;;4990799;28;20084;-75
2023/08/07 05:53:51;;;;;;;4.55;1.50;;;12.70;99.90;;;;;;4990644;28;20363;-75
2023/08/07 05:56:17;;;;;;;5.10;1.60;;;12.70;99.90;;;;;;4990897;28;20026;-76
2023/08/07 05:58:43;;;;;;;5.40;1.98;;;12.70;99.90;;;;;;4989224;28;20031;-75
2023/08/07 06:01:09;;;;;;;3.63;1.40;;;12.80;99.90;;;;;;4973726;28;20030;-75
2023/08/07 06:03:34;;;;;;;3.75;1.70;;;12.80;99.90;;;;;;4990820;28;20026;-75
2023/08/07 06:06:00;;;;;;;4.30;1.92;;;12.80;99.90;;;;;;4989617;28;20444;-75
2023/08/07 06:08:26;;;;;;;3.60;1.30;;;12.80;99.90;;;;;;4994840;28;20065;-75
2023/08/07 06:10:51;;;;;;;2.85;1.55;;;12.90;99.90;;;;;;4992011;28;20436;-76
2023/08/07 06:13:17;;;;;;;3.22;1.40;;;13.00;99.90;;;;;;4975763;28;20041;-75
2023/08/07 06:15:43;;;;;;;2.15;1.33;;;13.10;99.90;;;;;;4974808;28;20417;-76
2023/08/07 06:18:09;;;;;;;8.55;1.42;;;13.10;99.90;;;;;;4975301;28;20074;-75
2023/08/07 06:20:35;;;;;;;4.03;1.48;;;13.20;99.90;;;;;;4975449;28;20027;-75
2023/08/07 06:23:00;;;;;;;5.43;1.80;;;13.30;99.90;;;;;;4973549;28;20027;-75
2023/08/07 06:25:27;;;;;;;3.65;1.42;;;13.40;99.90;;;;;;4975610;28;20023;-75
2023/08/07 06:27:53;;;;;;;6.18;1.50;;;13.40;99.90;;;;;;4974996;28;20026;-76
2023/08/07 06:30:19;;;;;;;3.30;1.50;;;13.50;99.90;;;;;;4975761;28;20027;-75
2023/08/07 06:32:44;;;;;;;2.70;1.30;;;13.60;99.90;;;;;;4974985;28;20118;-76
2023/08/07 06:35:29;;;;;;;3.28;1.30;;;13.70;99.90;;;;;;4975511;28;20217;-75
2023/08/07 06:37:55;;;;;;;1.40;1.10;;;13.70;99.90;;;;;;4974387;28;20114;-75
2023/08/07 06:40:20;;;;;;;2.35;1.50;;;13.80;99.90;;;;;;4975047;28;20031;-75
2023/08/07 06:42:46;;;;;;;5.28;1.48;;;13.80;99.90;;;;;;4974439;28;20054;-75
2023/08/07 06:45:12;;;;;;;3.33;1.20;;;13.80;99.90;;;;;;4975011;28;20027;-75
2023/08/07 06:47:37;;;;;;;4.60;1.25;;;13.90;99.90;;;;;;4974578;28;20046;-75
2023/08/07 06:50:03;;;;;;;3.05;1.25;;;13.80;99.90;;;;;;4974302;28;20081;-75
2023/08/07 06:52:29;;;;;;;1.83;1.20;;;13.90;99.90;;;;;;4973152;28;20038;-75
2023/08/07 06:54:55;;;;;;;4.95;1.38;;;13.90;99.90;;;;;;4974034;28;20045;-76
2023/08/07 06:57:20;;;;;;;5.13;1.55;;;14.00;99.90;;;;;;4974680;28;20500;-75
2023/08/07 06:59:46;;;;;;;2.42;1.02;;;13.90;99.90;;;;;;4974412;28;20042;-75
2023/08/07 07:02:11;;;;;;;2.30;1.25;;;14.00;99.90;;;;;;4973411;28;20528;-74
2023/08/07 07:04:37;;;;;;;3.80;1.30;;;14.00;99.90;;;;;;4974525;28;20049;-75
2023/08/07 07:07:03;;;;;;;2.85;1.33;;;14.00;99.90;;;;;;4973749;28;20101;-73
2023/08/07 07:09:29;;;;;;;2.35;1.25;;;14.10;99.90;;;;;;4974232;28;20117;-75
2023/08/07 07:11:55;;;;;;;2.40;1.15;;;14.10;99.90;;;;;;4973952;28;20133;-76
2023/08/07 07:14:21;;;;;;;3.25;1.42;;;14.10;99.90;;;;;;4974146;28;20034;-74
2023/08/07 07:16:47;;;;;;;2.92;1.00;;;14.10;99.90;;;;;;4973488;28;20098;-75
2023/08/07 07:19:13;;;;;;;2.78;1.10;;;14.20;99.90;;;;;;4973998;28;20022;-74
2023/08/07 07:21:39;;;;;;;3.85;1.58;;;14.20;99.90;;;;;;4974213;28;20136;-75
2023/08/07 07:24:05;;;;;;;2.85;1.35;;;14.20;99.90;;;;;;4973617;28;20607;-74
2023/08/07 07:26:30;;;;;;;2.97;1.13;;;14.20;99.90;;;;;;4974104;28;20034;-74
2023/08/07 07:28:56;;;;;;;2.53;1.30;;;14.20;99.90;;;;;;4973361;28;20031;-74
2023/08/07 07:31:22;;;;;;;2.42;1.30;;;14.20;99.90;;;;;;4974736;28;20106;-75
2023/08/07 07:33:48;;;;;;;2.75;1.00;;;14.30;99.90;;;;;;4973448;28;20123;-75
2023/08/07 07:36:16;;;;;;;4.38;1.27;;;14.30;99.90;;;;;;4974647;28;20058;-75
2023/08/07 07:38:43;;;;;;;2.50;1.10;;;14.40;99.90;;;;;;4971873;28;20065;-74
2023/08/07 07:41:11;;;;;;;2.72;1.30;;;14.40;99.90;;;;;;4972303;28;20034;-75
2023/08/07 07:43:37;;;;;;;2.50;1.20;;;14.50;99.90;;;;;;4974225;28;20373;-75
2023/08/07 07:46:03;;;;;;;4.00;1.23;;;14.60;99.90;;;;;;4973338;28;20023;-75
2023/08/07 07:48:29;;;;;;;2.40;1.15;;;14.70;99.90;;;;;;4973851;28;20095;-76
2023/08/07 07:51:04;;;;;;;3.55;1.13;;;14.70;99.90;;;;;;4975118;28;20483;-76
2023/08/07 07:53:30;;;;;;;5.88;0.90;;;14.80;99.90;;;;;;4986048;28;20125;-75
2023/08/07 07:55:56;;;;;;;7.90;1.30;;;14.80;99.90;;;;;;4980580;28;20439;-75
2023/08/07 07:58:22;;;;;;;4.60;1.30;;;14.80;99.90;;;;;;4984296;28;20038;-75
2023/08/07 08:00:48;;;;;;;2.03;1.23;;;14.80;99.90;;;;;;4983336;28;20372;-77
2023/08/07 08:03:13;;;;;;;5.25;1.45;;;14.90;99.90;;;;;;4982420;28;20105;-75
2023/08/07 08:05:39;;;;;;;2.35;1.40;;;14.90;99.90;;;;;;4982327;28;20022;-75
2023/08/07 08:08:09;;;;;;;3.90;1.30;;;15.00;99.90;;;;;;4991818;28;20029;-75
2023/08/07 08:10:35;;;;;;;2.38;0.95;;;15.20;99.90;;;;;;4993037;28;20030;-76
2023/08/07 08:13:03;;;;;;;4.25;2.15;;;15.40;99.90;;;;;;4992221;28;20034;-76
2023/08/07 08:15:29;;;;;;;3.80;1.13;;;15.50;99.90;;;;;;4992571;28;20485;-76
2023/08/07 08:17:55;;;;;;;2.13;0.88;;;15.70;99.90;;;;;;4992193;28;20125;-76
2023/08/07 08:20:21;;;;;;;2.60;1.10;;;15.70;99.90;;;;;;4992400;28;20030;-75
2023/08/07 08:22:47;;;;;;;2.65;1.30;;;15.80;99.90;;;;;;4992132;28;20038;-77
2023/08/07 08:25:13;;;;;;;2.78;1.00;;;16.00;99.90;;;;;;4992465;28;20027;-76
2023/08/07 08:27:39;;;;;;;2.20;0.75;;;16.00;99.90;;;;;;4992615;28;20096;-74
2023/08/07 08:30:06;;;;;;;1.83;0.93;;;16.10;99.90;;;;;;4989606;28;20380;-75
2023/08/07 08:32:32;;;;;;;3.22;0.90;;;16.00;99.90;;;;;;4993009;28;20042;-77
2023/08/07 08:34:58;;;;;;;2.88;0.90;;;16.00;99.90;;;;;;4992046;28;20443;-74
2023/08/07 08:37:24;;;;;;;1.60;0.77;;;16.20;99.90;;;;;;4992140;28;20063;-74
2023/08/07 08:39:51;;;;;;;1.98;0.65;;;16.20;99.90;;;;;;4991262;28;20047;-76
2023/08/07 08:42:19;;;;;;;3.15;0.73;;;16.30;99.90;;;;;;5007437;28;20041;-75
2023/08/07 08:44:56;;;;;;;2.65;0.80;;;16.30;99.90;;;;;;4992377;28;20469;-74
2023/08/07 08:47:23;;;;;;;3.70;0.75;;;16.40;99.90;;;;;;4992325;28;20034;-75
2023/08/07 08:50:15;;;;;;;2.38;0.90;;;16.40;99.90;;;;;;4992041;28;20023;-76
2023/08/07 08:52:44;;;;;;;2.10;0.93;;;16.30;99.90;;;;;;4991293;28;20042;-74
2023/08/07 08:55:12;;;;;;;1.10;0.63;;;16.50;99.90;;;;;;4991624;28;20141;-75
2023/08/07 08:57:39;;;;;;;2.92;0.85;;;16.50;99.90;;;;;;4992195;28;20152;-74
2023/08/07 09:00:15;;;;;;;1.55;1.10;;;16.60;99.90;;;;;;4991931;28;20058;-76
2023/08/07 09:02:43;;;;;;;3.10;1.00;;;16.70;99.90;;;;;;4992502;28;20026;-75
2023/08/07 09:05:09;;;;;;;5.03;1.10;;;16.70;99.90;;;;;;4991734;28;20029;-76
2023/08/07 09:07:35;;;;;;;2.20;0.80;;;16.80;99.90;;;;;;4992359;28;20022;-76
2023/08/07 09:10:02;;;;;;;3.53;0.98;;;16.90;99.90;;;;;;4991358;28;20041;-77
2023/08/07 09:12:31;;;;;;;3.03;0.95;;;17.00;99.90;;;;;;4990937;28;20034;-77
2023/08/07 09:14:58;;;;;;;2.15;1.63;;;17.00;99.90;;;;;;4978539;28;20030;-77
2023/08/07 09:17:34;;;;;;;2.08;0.77;;;17.00;99.90;;;;;;4973115;28;20046;-77
2023/08/07 09:20:00;;;;;;;4.38;0.82;;;17.10;99.90;;;;;;4972008;28;20046;-77
2023/08/07 09:22:26;;;;;;;3.92;0.90;;;17.20;99.90;;;;;;4972832;28;20041;-77
2023/08/07 09:24:52;;;;;;;0.77;0.50;;;17.10;99.90;;;;;;4971142;28;20448;-77
2023/08/07 09:27:18;;;;;;;1.25;0.80;;;17.10;99.90;;;;;;4970498;28;20420;-77
2023/08/07 09:29:45;;;;;;;1.25;0.52;;;17.00;99.90;;;;;;4971595;28;20890;-76
2023/08/07 09:32:13;;;;;;;0.98;0.70;;;17.00;99.90;;;;;;4971197;28;20116;-78
2023/08/07 09:34:40;;;;;;;1.27;0.60;;;17.10;99.90;;;;;;4971480;28;20057;-76
2023/08/07 09:37:08;;;;;;;2.35;0.68;;;17.20;99.90;;;;;;4970420;28;20050;-76
2023/08/07 09:39:35;;;;;;;1.33;0.70;;;17.40;99.90;;;;;;4954162;28;20062;-76
2023/08/07 09:42:02;;;;;;;1.85;0.70;;;17.40;99.90;;;;;;4971030;28;20046;-77
2023/08/07 09:44:38;;;;;;;0.80;0.52;;;17.30;99.90;;;;;;4969837;28;20038;-75
2023/08/07 09:47:14;;;;;;;1.65;0.90;;;17.40;99.90;;;;;;4972857;28;20063;-76
2023/08/07 09:49:40;;;;;;;2.88;0.70;;;17.40;99.90;;;;;;4970990;28;20041;-76
2023/08/07 09:52:09;;;;;;;2.45;0.77;;;17.40;99.90;;;;;;4972067;28;20043;-76
2023/08/07 09:54:36;;;;;;;1.25;0.63;;;17.40;99.90;;;;;;4971828;28;20365;-76
2023/08/07 09:57:03;;;;;;;2.38;0.77;;;17.50;99.90;;;;;;4970941;28;20038;-76
2023/08/07 09:59:29;;;;;;;1.65;0.80;;;17.60;99.90;;;;;;4970572;28;20026;-76
2023/08/07 10:01:55;;;;;;;3.28;0.82;;;17.60;99.90;;;;;;4971445;28;20046;-77
2023/08/07 10:04:25;;;;;;;1.77;0.60;;;17.50;99.90;;;;;;4969843;28;20038;-76
2023/08/07 10:06:51;;;;;;;1.40;0.80;;;17.60;99.90;;;;;;4970893;28;20046;-77
2023/08/07 10:09:17;;;;;;;1.23;0.60;;;17.70;99.90;;;;;;4971006;28;20113;-76
2023/08/07 10:11:43;;;;;;;1.33;0.70;;;17.70;99.90;;;;;;4970981;28;20091;-76
2023/08/07 10:14:09;;;;;;;2.70;0.70;;;17.80;99.90;;;;;;4970469;28;20451;-77
2023/08/07 10:16:39;;;;;;;2.20;0.55;;;17.80;99.90;;;;;;4970858;28;20037;-76
2023/08/07 10:19:05;;;;;;;1.67;0.63;;;17.70;99.90;;;;;;4970264;28;20486;-77
2023/08/07 10:21:35;;;;;;;1.00;0.50;;;17.70;99.90;;;;;;4970789;28;20129;-78
2023/08/07 10:24:04;;;;;;;1.38;0.60;;;17.70;99.90;;;;;;4970919;28;20035;-78
2023/08/07 10:26:32;;;;;;;0.90;0.68;;;17.80;99.90;;;;;;4971556;28;20038;-78
2023/08/07 10:29:02;;;;;;;1.90;0.55;;;17.90;99.90;;;;;;4970934;28;20038;-78
2023/08/07 10:31:30;;;;;;;0.63;0.60;;;18.10;99.90;;;;;;4972106;28;20090;-77
2023/08/07 10:33:55;;;;;;;0.63;0.63;;;18.30;99.90;;;;;;4971440;28;20090;-78
2023/08/07 10:36:21;;;;;;;1.90;0.50;;;18.40;99.90;;;;;;4971412;28;20026;-78
2023/08/07 10:38:53;;;;;;;0.77;0.40;;;18.30;99.90;;;;;;4973208;28;20055;-77
2023/08/07 10:41:19;;;;;;;1.07;0.60;;;18.10;99.90;;;;;;4972541;28;20126;-77
2023/08/07 10:43:47;;;;;;;1.55;0.70;;;17.90;99.90;;;;;;4972433;28;20039;-77
2023/08/07 10:46:19;;;;;;;2.67;0.73;;;17.70;99.90;;;;;;4971032;28;20034;-78
2023/08/07 10:48:48;;;;;;;3.30;0.70;;;17.50;99.90;;;;;;4971516;28;20372;-78
2023/08/07 10:51:18;;;;;;;0.90;0.50;;;17.40;99.90;;;;;;4971498;28;20126;-78
2023/08/07 10:53:48;;;;;;;1.30;0.57;;;17.20;99.90;;;;;;4974230;28;20388;-77
2023/08/07 10:56:34;;;;;;;0.95;0.60;;;17.00;99.90;;;;;;4974918;28;20039;-77
2023/08/07 10:59:09;;;;;;;1.92;0.90;;;16.90;99.90;;;;;;4975201;28;20034;-78
2023/08/07 11:01:38;;;;;;;1.33;0.70;;;16.70;99.90;;;;;;4975380;28;20113;-78
2023/08/07 11:04:14;;;;;;;1.80;0.50;;;16.60;99.90;;;;;;4973486;28;20102;-78
2023/08/07 11:06:41;;;;;;;1.23;0.70;;;16.60;99.90;;;;;;4975438;28;20086;-78
2023/08/07 11:09:08;;;;;;;0.63;0.63;;;16.60;99.90;;;;;;4974572;28;20031;-78
2023/08/07 11:11:46;;;;;;;2.20;0.93;;;16.60;99.90;;;;;;4975124;28;20027;-78
2023/08/07 11:14:16;;;;;;;1.08;0.68;;;16.70;99.90;;;;;;4974131;28;20047;-78
2023/08/07 11:16:43;;;;;;;1.15;0.77;;;16.70;99.90;;;;;;4974632;28;20031;-77
2023/08/07 11:19:09;;;;;;;1.35;0.90;;;16.70;99.90;;;;;;4973789;28;20058;-78
2023/08/07 11:21:36;;;;;;;1.92;0.65;;;16.80;99.90;;;;;;4975109;28;20113;-77
2023/08/07 11:24:02;;;;;;;0.60;0.43;;;16.90;99.90;;;;;;4974600;28;20054;-77
2023/08/07 11:26:28;;;;;;;1.08;0.57;;;16.90;99.90;;;;;;4974090;28;20027;-77
2023/08/07 11:28:55;;;;;;;1.55;0.80;;;17.10;99.90;;;;;;4974874;28;20486;-78
2023/08/07 11:31:24;;;;;;;3.72;1.00;;;17.30;99.90;;;;;;4975523;28;20046;-77
2023/08/07 11:33:55;;;;;;;1.13;0.60;;;17.60;99.90;;;;;;4974143;28;20035;-78
2023/08/07 11:36:20;;;;;;;1.77;0.63;;;17.80;99.90;;;;;;4974375;28;20026;-76
2023/08/07 11:38:46;;;;;;;2.90;0.60;;;17.90;99.90;;;;;;4975151;28;20055;-77
2023/08/07 11:41:14;;;;;;;2.15;0.60;;;17.90;99.90;;;;;;4973625;28;20031;-78
2023/08/07 11:43:41;;;;;;;1.25;0.60;;;17.80;99.90;;;;;;4974131;28;20030;-78
2023/08/07 11:46:08;;;;;;;2.15;0.73;;;17.70;99.90;;;;;;4973496;28;20054;-78
2023/08/07 11:48:36;;;;;;;1.83;0.88;;;17.70;99.90;;;;;;4973796;28;20033;-79
2023/08/07 11:51:04;;;;;;;1.95;0.82;;;17.80;99.90;;;;;;4972968;28;20026;-77
2023/08/07 11:53:32;;;;;;;1.58;1.13;;;17.80;99.90;;;;;;4973615;28;20039;-77
2023/08/07 11:56:00;;;;;;;1.25;0.90;;;18.00;99.90;;;;;;4973162;28;20088;-78
2023/08/07 11:58:28;;;;;;;1.50;0.90;;;18.00;99.90;;;;;;4973447;28;20038;-78
2023/08/07 12:00:54;;;;;;;2.13;0.85;;;18.30;99.90;;;;;;4974568;28;20027;-78
2023/08/07 12:03:28;;;;;;;2.08;0.70;;;18.40;99.90;;;;;;4992689;28;20082;-78
2023/08/07 12:05:56;;;;;;;2.25;0.70;;;18.50;99.90;;;;;;4993130;28;20026;-78
2023/08/07 12:08:22;;;;;;;1.17;0.68;;;18.60;99.90;;;;;;4992803;28;20030;-77
2023/08/07 12:10:55;;;;;;;2.40;1.15;;;18.70;99.90;;;;;;4993096;28;20026;-78
2023/08/07 12:13:25;;;;;;;1.30;0.70;;;18.70;99.90;;;;;;4992463;28;20368;-77
2023/08/07 12:15:53;;;;;;;1.83;0.90;;;18.70;99.90;;;;;;4992648;28;20443;-77
2023/08/07 12:18:20;;;;;;;1.98;0.65;;;18.60;99.90;;;;;;4992223;28;20610;-78
2023/08/07 12:20:46;;;;;;;2.03;0.68;;;18.70;99.90;;;;;;4992635;28;20038;-78
2023/08/07 12:23:16;;;;;;;0.65;0.60;;;18.60;99.90;;;;;;4991842;28;20070;-78
2023/08/07 12:25:42;;;;;;;1.17;0.50;;;18.60;99.90;;;;;;4992742;28;20031;-79
2023/08/07 12:28:08;;;;;;;2.47;0.60;;;18.60;99.90;;;;;;4991488;28;20061;-79
2023/08/07 12:30:35;;;;;;;0.93;0.52;;;18.60;99.90;;;;;;4992759;28;20161;-78
2023/08/07 12:33:02;;;;;;;1.00;0.82;;;18.50;99.90;;;;;;4991910;28;20030;-78
2023/08/07 12:35:28;;;;;;;1.65;0.70;;;18.60;99.90;;;;;;4992346;28;20041;-78
2023/08/07 12:37:54;;;;;;;1.70;0.70;;;18.60;99.90;;;;;;4992193;28;20046;-79
2023/08/07 12:40:20;;;;;;;1.63;0.73;;;18.70;99.90;;;;;;4992520;28;20022;-78
2023/08/07 12:42:48;;;;;;;1.00;0.70;;;18.80;99.90;;;;;;4992477;28;20034;-78
2023/08/07 12:45:15;;;;;;;1.30;0.75;;;18.80;99.90;;;;;;4991379;28;20023;-78
2023/08/07 12:47:45;;;;;;;1.10;0.80;;;18.80;99.90;;;;;;4992150;28;20499;-78